sensor_id;sensor_type;location;lat;lon;timestamp;pressure;altitude;pressure_sealevel;temperature;humidity
41264;BME280;26998;48.714;9.414;2022-08-14T00:01:00;98365.13;;;16.24;72.59
41264;BME280;26998;48.714;9.414;2022-08-14T00:03:29;98370.50;;;16.24;71.96
41264;BME280;26998;48.714;9.414;2022-08-14T00:05:57;98366.59;;;16.14;72.13
41264;BME280;26998;48.714;9.414;2022-08-14T00:08:26;98358.91;;;16.06;72.72
41264;BME280;26998;48.714;9.414;2022-08-14T00:11:10;98349.84;;;15.96;72.69
41264;BME280;26998;48.714;9.414;2022-08-14T00:13:37;98350.41;;;15.81;73.95
41264;BME280;26998;48.714;9.414;2022-08-14T00:16:03;98352.84;;;15.82;74.30
41264;BME280;26998;48.714;9.414;2022-08-14T00:18:33;98338.16;;;15.73;75.26
41264;BME280;26998;48.714;9.414;2022-08-14T00:21:19;98339.25;;;15.60;75.57
41264;BME280;26998;48.714;9.414;2022-08-14T00:23:56;98329.50;;;15.71;75.35
41264;BME280;26998;48.714;9.414;2022-08-14T00:26:27;98321.75;;;15.75;75.13
41264;BME280;26998;48.714;9.414;2022-08-14T00:28:54;98320.03;;;15.68;75.49
41264;BME280;26998;48.714;9.414;2022-08-14T00:31:20;98319.28;;;15.73;75.05
41264;BME280;26998;48.714;9.414;2022-08-14T00:34:07;98317.69;;;15.60;75.64
41264;BME280;26998;48.714;9.414;2022-08-14T00:36:53;98308.97;;;15.36;76.94
41264;BME280;26998;48.714;9.414;2022-08-14T00:39:24;98303.47;;;15.31;77.83
41264;BME280;26998;48.714;9.414;2022-08-14T00:41:51;98303.13;;;15.28;77.87
41264;BME280;26998;48.714;9.414;2022-08-14T00:44:18;98305.66;;;15.17;78.67
41264;BME280;26998;48.714;9.414;2022-08-14T00:46:57;98297.09;;;15.20;78.51
41264;BME280;26998;48.714;9.414;2022-08-14T00:49:24;98305.19;;;15.20;78.48
41264;BME280;26998;48.714;9.414;2022-08-14T00:51:51;98303.03;;;15.22;78.29
41264;BME280;26998;48.714;9.414;2022-08-14T00:54:18;98300.69;;;15.26;78.20
41264;BME280;26998;48.714;9.414;2022-08-14T00:56:50;98286.19;;;15.27;77.98
41264;BME280;26998;48.714;9.414;2022-08-14T00:59:21;98297.50;;;15.29;77.60
41264;BME280;26998;48.714;9.414;2022-08-14T01:01:48;98284.69;;;15.19;78.29
41264;BME280;26998;48.714;9.414;2022-08-14T01:04:17;98282.31;;;15.23;77.94
41264;BME280;26998;48.714;9.414;2022-08-14T01:07:04;98286.22;;;15.15;78.60
41264;BME280;26998;48.714;9.414;2022-08-14T01:09:34;98286.88;;;15.22;78.55
41264;BME280;26998;48.714;9.414;2022-08-14T01:12:01;98289.69;;;15.28;77.94
41264;BME280;26998;48.714;9.414;2022-08-14T01:14:29;98293.72;;;15.13;78.52
41264;BME280;26998;48.714;9.414;2022-08-14T01:16:57;98290.84;;;15.03;78.84
41264;BME280;26998;48.714;9.414;2022-08-14T01:19:25;98292.06;;;14.95;80.06
41264;BME280;26998;48.714;9.414;2022-08-14T01:21:51;98295.63;;;15.01;79.46
41264;BME280;26998;48.714;9.414;2022-08-14T01:24:19;98294.00;;;15.00;79.63
41264;BME280;26998;48.714;9.414;2022-08-14T01:26:56;98289.84;;;14.92;80.35
41264;BME280;26998;48.714;9.414;2022-08-14T01:29:25;98290.06;;;14.91;80.08
41264;BME280;26998;48.714;9.414;2022-08-14T01:32:12;98282.59;;;14.93;80.63
41264;BME280;26998;48.714;9.414;2022-08-14T01:34:40;98279.66;;;14.94;80.64
41264;BME280;26998;48.714;9.414;2022-08-14T01:37:27;98286.31;;;14.92;80.73
41264;BME280;26998;48.714;9.414;2022-08-14T01:39:56;98290.19;;;14.96;80.90
41264;BME280;26998;48.714;9.414;2022-08-14T01:42:24;98286.06;;;15.05;80.31
41264;BME280;26998;48.714;9.414;2022-08-14T01:45:01;98289.69;;;14.99;80.44
41264;BME280;26998;48.714;9.414;2022-08-14T01:47:28;98289.63;;;14.82;81.18
41264;BME280;26998;48.714;9.414;2022-08-14T01:50:02;98282.72;;;14.86;81.38
41264;BME280;26998;48.714;9.414;2022-08-14T01:52:30;98282.34;;;14.94;80.98
41264;BME280;26998;48.714;9.414;2022-08-14T01:55:17;98280.84;;;14.87;81.18
41264;BME280;26998;48.714;9.414;2022-08-14T01:57:44;98281.84;;;14.69;81.54
41264;BME280;26998;48.714;9.414;2022-08-14T02:00:27;98268.41;;;14.57;82.74
41264;BME280;26998;48.714;9.414;2022-08-14T02:02:56;98264.59;;;14.53;83.29
41264;BME280;26998;48.714;9.414;2022-08-14T02:05:24;98269.72;;;14.54;83.38
41264;BME280;26998;48.714;9.414;2022-08-14T02:07:51;98269.81;;;14.48;83.63
41264;BME280;26998;48.714;9.414;2022-08-14T02:10:33;98261.91;;;14.29;84.67
41264;BME280;26998;48.714;9.414;2022-08-14T02:13:11;98258.06;;;14.25;85.58
41264;BME280;26998;48.714;9.414;2022-08-14T02:15:37;98248.13;;;14.26;85.77
41264;BME280;26998;48.714;9.414;2022-08-14T02:18:08;98256.78;;;14.28;86.12
41264;BME280;26998;48.714;9.414;2022-08-14T02:20:37;98257.22;;;14.37;85.34
41264;BME280;26998;48.714;9.414;2022-08-14T02:23:05;98257.22;;;14.37;85.90
41264;BME280;26998;48.714;9.414;2022-08-14T02:25:33;98250.94;;;14.19;85.78
41264;BME280;26998;48.714;9.414;2022-08-14T02:28:00;98251.41;;;14.04;86.91
41264;BME280;26998;48.714;9.414;2022-08-14T02:30:47;98252.34;;;14.10;86.54
41264;BME280;26998;48.714;9.414;2022-08-14T02:33:18;98255.38;;;14.14;86.26
41264;BME280;26998;48.714;9.414;2022-08-14T02:35:44;98251.41;;;14.16;86.15
41264;BME280;26998;48.714;9.414;2022-08-14T02:38:18;98256.78;;;14.16;85.88
41264;BME280;26998;48.714;9.414;2022-08-14T02:40:59;98266.38;;;14.12;86.12
41264;BME280;26998;48.714;9.414;2022-08-14T02:43:26;98256.19;;;14.14;86.37
41264;BME280;26998;48.714;9.414;2022-08-14T02:46:11;98236.34;;;14.15;86.22
41264;BME280;26998;48.714;9.414;2022-08-14T02:48:39;98232.47;;;14.23;85.80
41264;BME280;26998;48.714;9.414;2022-08-14T02:51:26;98217.84;;;14.30;86.19
41264;BME280;26998;48.714;9.414;2022-08-14T02:53:56;98211.31;;;14.26;85.72
41264;BME280;26998;48.714;9.414;2022-08-14T02:56:22;98213.31;;;14.19;85.86
41264;BME280;26998;48.714;9.414;2022-08-14T02:59:09;98207.47;;;14.22;86.23
41264;BME280;26998;48.714;9.414;2022-08-14T03:01:36;98208.88;;;14.25;86.62
41264;BME280;26998;48.714;9.414;2022-08-14T03:04:15;98199.06;;;14.19;87.01
41264;BME280;26998;48.714;9.414;2022-08-14T03:06:45;98200.94;;;14.18;87.16
41264;BME280;26998;48.714;9.414;2022-08-14T03:09:32;98198.13;;;14.13;87.10
41264;BME280;26998;48.714;9.414;2022-08-14T03:12:18;98198.94;;;14.14;86.94
41264;BME280;26998;48.714;9.414;2022-08-14T03:14:57;98198.75;;;14.03;87.07
41264;BME280;26998;48.714;9.414;2022-08-14T03:17:24;98195.03;;;13.81;87.88
41264;BME280;26998;48.714;9.414;2022-08-14T03:19:50;98194.34;;;13.50;90.32
41264;BME280;26998;48.714;9.414;2022-08-14T03:22:17;98208.22;;;13.47;90.87
41264;BME280;26998;48.714;9.414;2022-08-14T03:24:43;98202.75;;;13.54;90.08
41264;BME280;26998;48.714;9.414;2022-08-14T03:27:10;98197.59;;;13.76;88.62
41264;BME280;26998;48.714;9.414;2022-08-14T03:29:36;98197.03;;;13.62;88.66
41264;BME280;26998;48.714;9.414;2022-08-14T03:32:06;98192.59;;;13.56;89.62
41264;BME280;26998;48.714;9.414;2022-08-14T03:34:33;98192.94;;;13.48;90.06
41264;BME280;26998;48.714;9.414;2022-08-14T03:37:21;98194.47;;;13.44;89.95
41264;BME280;26998;48.714;9.414;2022-08-14T03:40:08;98194.47;;;13.44;90.61
41264;BME280;26998;48.714;9.414;2022-08-14T03:42:42;98178.69;;;13.47;90.52
41264;BME280;26998;48.714;9.414;2022-08-14T03:45:10;98178.81;;;13.52;90.43
41264;BME280;26998;48.714;9.414;2022-08-14T03:47:58;98166.16;;;14.12;96.66
41264;BME280;26998;48.714;9.414;2022-08-14T03:50:27;98164.03;;;15.16;86.76
41264;BME280;26998;48.714;9.414;2022-08-14T03:52:58;98167.28;;;14.85;84.01
41264;BME280;26998;48.714;9.414;2022-08-14T03:55:25;98175.19;;;14.91;83.49
41264;BME280;26998;48.714;9.414;2022-08-14T03:57:52;98174.09;;;14.75;82.99
41264;BME280;26998;48.714;9.414;2022-08-14T04:00:19;98168.25;;;14.78;83.51
41264;BME280;26998;48.714;9.414;2022-08-14T04:03:06;98176.00;;;14.92;82.19
41264;BME280;26998;48.714;9.414;2022-08-14T04:05:33;98166.44;;;15.30;81.11
41264;BME280;26998;48.714;9.414;2022-08-14T04:08:08;98167.63;;;15.05;81.29
41264;BME280;26998;48.714;9.414;2022-08-14T04:10:54;98153.19;;;15.28;80.17
41264;BME280;26998;48.714;9.414;2022-08-14T04:13:22;98162.09;;;15.45;78.33
41264;BME280;26998;48.714;9.414;2022-08-14T04:15:50;98151.47;;;14.88;81.17
41264;BME280;26998;48.714;9.414;2022-08-14T04:18:27;98158.97;;;14.86;82.77
41264;BME280;26998;48.714;9.414;2022-08-14T04:20:54;98157.53;;;14.67;82.76
41264;BME280;26998;48.714;9.414;2022-08-14T04:23:21;98173.91;;;14.37;84.82
41264;BME280;26998;48.714;9.414;2022-08-14T04:25:58;98162.63;;;14.51;84.73
41264;BME280;26998;48.714;9.414;2022-08-14T04:28:25;98153.47;;;14.64;84.55
41264;BME280;26998;48.714;9.414;2022-08-14T04:31:12;98150.75;;;14.93;83.22
41264;BME280;26998;48.714;9.414;2022-08-14T04:33:40;98151.88;;;14.97;82.36
41264;BME280;26998;48.714;9.414;2022-08-14T04:36:07;98149.13;;;15.25;79.31
41264;BME280;26998;48.714;9.414;2022-08-14T04:38:41;98157.03;;;15.32;79.11
41264;BME280;26998;48.714;9.414;2022-08-14T04:41:07;98153.09;;;15.23;79.61
41264;BME280;26998;48.714;9.414;2022-08-14T04:43:34;98159.56;;;15.22;81.34
41264;BME280;26998;48.714;9.414;2022-08-14T04:46:05;98159.72;;;15.32;79.21
41264;BME280;26998;48.714;9.414;2022-08-14T04:48:33;98160.69;;;15.43;78.07
41264;BME280;26998;48.714;9.414;2022-08-14T04:51:17;98158.25;;;15.24;79.23
41264;BME280;26998;48.714;9.414;2022-08-14T04:53:46;98154.41;;;15.37;77.57
41264;BME280;26998;48.714;9.414;2022-08-14T04:56:17;98154.09;;;15.34;77.57
41264;BME280;26998;48.714;9.414;2022-08-14T04:58:59;98160.25;;;15.51;76.73
41264;BME280;26998;48.714;9.414;2022-08-14T05:01:27;98169.09;;;15.46;75.83
41264;BME280;26998;48.714;9.414;2022-08-14T05:03:59;98177.50;;;15.16;78.62
41264;BME280;26998;48.714;9.414;2022-08-14T05:06:25;98178.66;;;15.37;77.72
41264;BME280;26998;48.714;9.414;2022-08-14T05:09:04;98185.72;;;15.60;77.14
41264;BME280;26998;48.714;9.414;2022-08-14T05:11:31;98185.72;;;15.60;76.31
41264;BME280;26998;48.714;9.414;2022-08-14T05:13:58;98184.59;;;15.73;75.74
41264;BME280;26998;48.714;9.414;2022-08-14T05:16:45;98187.47;;;16.49;70.85
41264;BME280;26998;48.714;9.414;2022-08-14T05:19:12;98190.84;;;17.16;67.70
41264;BME280;26998;48.714;9.414;2022-08-14T05:21:53;98185.28;;;17.65;65.36
41264;BME280;26998;48.714;9.414;2022-08-14T05:24:39;98180.78;;;18.28;61.39
41264;BME280;26998;48.714;9.414;2022-08-14T05:27:06;98171.19;;;18.63;59.87
41264;BME280;26998;48.714;9.414;2022-08-14T05:29:32;98170.97;;;19.00;58.84
41264;BME280;26998;48.714;9.414;2022-08-14T05:32:00;98181.53;;;19.37;56.84
41264;BME280;26998;48.714;9.414;2022-08-14T05:34:27;98187.78;;;19.74;55.21
41264;BME280;26998;48.714;9.414;2022-08-14T05:36:56;98186.41;;;19.56;55.65
41264;BME280;26998;48.714;9.414;2022-08-14T05:39:28;98182.91;;;19.45;56.47
41264;BME280;26998;48.714;9.414;2022-08-14T05:41:56;98178.84;;;19.12;56.87
41264;BME280;26998;48.714;9.414;2022-08-14T05:44:22;98189.69;;;19.32;57.03
41264;BME280;26998;48.714;9.414;2022-08-14T05:46:55;98192.41;;;19.27;57.07
41264;BME280;26998;48.714;9.414;2022-08-14T05:49:22;98184.00;;;19.08;57.34
41264;BME280;26998;48.714;9.414;2022-08-14T05:51:58;98162.06;;;19.20;58.93
41264;BME280;26998;48.714;9.414;2022-08-14T05:54:26;98162.03;;;19.46;57.55
41264;BME280;26998;48.714;9.414;2022-08-14T05:57:00;98160.94;;;19.52;57.54
41264;BME280;26998;48.714;9.414;2022-08-14T05:59:27;98163.63;;;19.88;56.09
41264;BME280;26998;48.714;9.414;2022-08-14T06:02:05;98167.38;;;19.97;54.63
41264;BME280;26998;48.714;9.414;2022-08-14T06:04:31;98161.44;;;19.95;55.89
41264;BME280;26998;48.714;9.414;2022-08-14T06:06:58;98162.00;;;19.87;56.05
41264;BME280;26998;48.714;9.414;2022-08-14T06:09:24;98161.00;;;20.37;55.03
41264;BME280;26998;48.714;9.414;2022-08-14T06:11:50;98156.97;;;20.24;54.75
41264;BME280;26998;48.714;9.414;2022-08-14T06:14:17;98166.38;;;20.52;52.78
41264;BME280;26998;48.714;9.414;2022-08-14T06:16:46;98162.50;;;19.99;54.46
41264;BME280;26998;48.714;9.414;2022-08-14T06:19:13;98158.22;;;19.88;55.60
41264;BME280;26998;48.714;9.414;2022-08-14T06:21:43;98156.88;;;19.49;56.70
41264;BME280;26998;48.714;9.414;2022-08-14T06:24:11;98148.72;;;19.80;56.76
41264;BME280;26998;48.714;9.414;2022-08-14T06:26:44;98141.53;;;20.74;53.07
41264;BME280;26998;48.714;9.414;2022-08-14T06:29:22;98144.03;;;20.11;56.14
41264;BME280;26998;48.714;9.414;2022-08-14T06:31:48;98133.59;;;20.34;55.11
41264;BME280;26998;48.714;9.414;2022-08-14T06:34:25;98140.38;;;20.86;53.17
41264;BME280;26998;48.714;9.414;2022-08-14T06:37:11;98140.81;;;21.03;52.21
41264;BME280;26998;48.714;9.414;2022-08-14T06:39:41;98132.72;;;19.94;55.89
41264;BME280;26998;48.714;9.414;2022-08-14T06:42:09;98126.50;;;19.83;56.37
41264;BME280;26998;48.714;9.414;2022-08-14T06:44:56;98131.06;;;19.93;56.38
41264;BME280;26998;48.714;9.414;2022-08-14T06:47:23;98124.63;;;19.53;57.93
41264;BME280;26998;48.714;9.414;2022-08-14T06:49:50;98119.78;;;20.35;55.27
41264;BME280;26998;48.714;9.414;2022-08-14T06:52:23;98110.34;;;20.17;55.57
41264;BME280;26998;48.714;9.414;2022-08-14T06:54:50;98109.19;;;20.34;54.50
41264;BME280;26998;48.714;9.414;2022-08-14T06:57:17;98107.66;;;21.06;53.11
41264;BME280;26998;48.714;9.414;2022-08-14T06:59:46;98095.03;;;20.42;54.25
41264;BME280;26998;48.714;9.414;2022-08-14T07:02:15;98102.22;;;21.06;52.85
41264;BME280;26998;48.714;9.414;2022-08-14T07:04:43;98105.56;;;20.93;52.84
41264;BME280;26998;48.714;9.414;2022-08-14T07:07:09;98100.31;;;20.72;53.52
41264;BME280;26998;48.714;9.414;2022-08-14T07:09:36;98099.13;;;20.39;54.96
41264;BME280;26998;48.714;9.414;2022-08-14T07:12:16;98098.63;;;20.27;55.59
41264;BME280;26998;48.714;9.414;2022-08-14T07:15:04;98098.03;;;19.80;57.44
41264;BME280;26998;48.714;9.414;2022-08-14T07:17:31;98087.09;;;20.01;56.83
41264;BME280;26998;48.714;9.414;2022-08-14T07:20:01;98075.41;;;20.11;56.51
41264;BME280;26998;48.714;9.414;2022-08-14T07:22:28;98066.78;;;20.53;55.41
41264;BME280;26998;48.714;9.414;2022-08-14T07:24:58;98063.50;;;20.51;55.37
41264;BME280;26998;48.714;9.414;2022-08-14T07:27:25;98063.34;;;20.71;54.71
41264;BME280;26998;48.714;9.414;2022-08-14T07:29:51;98070.59;;;20.86;54.49
41264;BME280;26998;48.714;9.414;2022-08-14T07:32:18;98060.41;;;21.02;54.30
41264;BME280;26998;48.714;9.414;2022-08-14T07:34:58;98064.19;;;21.35;53.17
41264;BME280;26998;48.714;9.414;2022-08-14T07:37:25;98070.97;;;21.62;52.57
41264;BME280;26998;48.714;9.414;2022-08-14T07:39:51;98066.19;;;21.25;52.21
41264;BME280;26998;48.714;9.414;2022-08-14T07:42:19;98060.91;;;21.09;53.14
41264;BME280;26998;48.714;9.414;2022-08-14T07:44:48;98070.81;;;21.53;52.25
41264;BME280;26998;48.714;9.414;2022-08-14T07:47:16;98067.63;;;21.94;51.85
41264;BME280;26998;48.714;9.414;2022-08-14T07:49:44;98076.41;;;21.86;50.62
41264;BME280;26998;48.714;9.414;2022-08-14T07:52:20;98072.03;;;21.66;51.33
41264;BME280;26998;48.714;9.414;2022-08-14T07:54:57;98077.47;;;21.90;50.66
41264;BME280;26998;48.714;9.414;2022-08-14T07:57:23;98068.00;;;22.06;50.21
41264;BME280;26998;48.714;9.414;2022-08-14T07:59:52;98074.00;;;22.27;49.79
41264;BME280;26998;48.714;9.414;2022-08-14T08:02:18;98067.03;;;22.59;49.28
41264;BME280;26998;48.714;9.414;2022-08-14T08:04:48;98076.81;;;22.93;47.70
41264;BME280;26998;48.714;9.414;2022-08-14T08:07:15;98075.59;;;22.85;47.30
41264;BME280;26998;48.714;9.414;2022-08-14T08:09:44;98080.38;;;23.12;46.78
41264;BME280;26998;48.714;9.414;2022-08-14T08:12:18;98080.44;;;23.67;46.63
41264;BME280;26998;48.714;9.414;2022-08-14T08:14:45;98083.91;;;23.73;45.70
41264;BME280;26998;48.714;9.414;2022-08-14T08:17:28;98090.88;;;24.07;44.80
41264;BME280;26998;48.714;9.414;2022-08-14T08:20:03;98083.31;;;24.54;44.47
41264;BME280;26998;48.714;9.414;2022-08-14T08:22:29;98075.38;;;24.66;43.76
41264;BME280;26998;48.714;9.414;2022-08-14T08:24:57;98087.56;;;24.82;41.33
41264;BME280;26998;48.714;9.414;2022-08-14T08:27:25;98074.47;;;24.93;40.81
41264;BME280;26998;48.714;9.414;2022-08-14T08:30:01;98072.47;;;25.07;39.89
41264;BME280;26998;48.714;9.414;2022-08-14T08:32:27;98069.13;;;25.33;39.65
41264;BME280;26998;48.714;9.414;2022-08-14T08:34:55;98071.25;;;25.45;38.69
41264;BME280;26998;48.714;9.414;2022-08-14T08:37:24;98072.41;;;25.84;38.23
41264;BME280;26998;48.714;9.414;2022-08-14T08:40:05;98060.69;;;25.92;38.04
41264;BME280;26998;48.714;9.414;2022-08-14T08:42:31;98061.06;;;26.08;38.50
41264;BME280;26998;48.714;9.414;2022-08-14T08:45:06;98074.00;;;26.33;36.87
41264;BME280;26998;48.714;9.414;2022-08-14T08:47:38;98069.50;;;26.81;36.13
41264;BME280;26998;48.714;9.414;2022-08-14T08:50:14;98069.00;;;26.44;34.76
41264;BME280;26998;48.714;9.414;2022-08-14T08:52:59;98064.97;;;26.93;34.68
41264;BME280;26998;48.714;9.414;2022-08-14T08:55:28;98060.19;;;27.46;32.44
41264;BME280;26998;48.714;9.414;2022-08-14T08:57:56;98059.44;;;27.28;33.53
41264;BME280;26998;48.714;9.414;2022-08-14T09:00:22;98064.63;;;27.68;32.20
41264;BME280;26998;48.714;9.414;2022-08-14T09:02:56;98060.41;;;27.79;31.60
41264;BME280;26998;48.714;9.414;2022-08-14T09:05:23;98058.53;;;27.54;32.19
41264;BME280;26998;48.714;9.414;2022-08-14T09:07:51;98057.00;;;27.82;31.36
41264;BME280;26998;48.714;9.414;2022-08-14T09:10:21;98043.59;;;27.72;31.00
41264;BME280;26998;48.714;9.414;2022-08-14T09:12:48;98042.63;;;28.06;30.27
41264;BME280;26998;48.714;9.414;2022-08-14T09:15:16;98041.09;;;27.97;30.92
41264;BME280;26998;48.714;9.414;2022-08-14T09:17:44;98045.91;;;27.79;30.76
41264;BME280;26998;48.714;9.414;2022-08-14T09:20:11;98044.25;;;27.78;30.90
41264;BME280;26998;48.714;9.414;2022-08-14T09:22:51;98031.88;;;28.01;30.41
41264;BME280;26998;48.714;9.414;2022-08-14T09:25:20;98038.19;;;28.23;30.00
41264;BME280;26998;48.714;9.414;2022-08-14T09:28:07;98018.44;;;28.00;30.01
41264;BME280;26998;48.714;9.414;2022-08-14T09:30:35;98033.56;;;28.36;29.65
41264;BME280;26998;48.714;9.414;2022-08-14T09:33:17;98038.44;;;28.09;30.10
41264;BME280;26998;48.714;9.414;2022-08-14T09:46:21;98038.50;;;28.84;28.83
41264;BME280;26998;48.714;9.414;2022-08-14T09:49:00;98036.41;;;29.02;28.59
41264;BME280;26998;48.714;9.414;2022-08-14T09:51:27;98044.34;;;29.16;27.97
41264;BME280;26998;48.714;9.414;2022-08-14T09:54:10;98031.19;;;28.88;28.26
41264;BME280;26998;48.714;9.414;2022-08-14T09:56:49;98027.97;;;28.86;28.34
41264;BME280;26998;48.714;9.414;2022-08-14T09:59:22;98014.59;;;29.42;27.85
41264;BME280;26998;48.714;9.414;2022-08-14T10:01:49;98013.22;;;29.36;27.13
41264;BME280;26998;48.714;9.414;2022-08-14T10:07:05;98013.94;;;28.67;28.29
41264;BME280;26998;48.714;9.414;2022-08-14T10:09:44;98003.94;;;28.95;28.15
41264;BME280;26998;48.714;9.414;2022-08-14T10:12:46;98000.34;;;29.16;28.42
41264;BME280;26998;48.714;9.414;2022-08-14T10:15:16;97990.50;;;29.39;28.04
41264;BME280;26998;48.714;9.414;2022-08-14T10:17:43;97993.38;;;29.31;27.64
41264;BME280;26998;48.714;9.414;2022-08-14T10:20:11;97989.72;;;29.51;26.91
41264;BME280;26998;48.714;9.414;2022-08-14T10:23:07;97980.31;;;29.52;27.54
41264;BME280;26998;48.714;9.414;2022-08-14T10:25:41;97984.56;;;29.62;27.22
41264;BME280;26998;48.714;9.414;2022-08-14T10:28:09;97979.28;;;29.44;27.81
41264;BME280;26998;48.714;9.414;2022-08-14T10:30:55;97976.41;;;29.53;27.42
41264;BME280;26998;48.714;9.414;2022-08-14T10:33:27;97969.19;;;29.85;26.62
41264;BME280;26998;48.714;9.414;2022-08-14T10:35:54;97951.41;;;29.58;26.88
41264;BME280;26998;48.714;9.414;2022-08-14T10:40:55;97940.34;;;30.07;26.44
41264;BME280;26998;48.714;9.414;2022-08-14T10:43:27;97940.06;;;30.12;26.42
41264;BME280;26998;48.714;9.414;2022-08-14T10:45:57;97934.88;;;29.83;26.39
41264;BME280;26998;48.714;9.414;2022-08-14T10:48:54;97931.56;;;29.77;26.58
41264;BME280;26998;48.714;9.414;2022-08-14T10:51:28;97927.78;;;29.69;27.10
41264;BME280;26998;48.714;9.414;2022-08-14T10:53:56;97932.31;;;30.02;27.16
41264;BME280;26998;48.714;9.414;2022-08-14T10:56:29;97939.13;;;30.33;26.14
41264;BME280;26998;48.714;9.414;2022-08-14T10:59:03;97929.59;;;30.30;25.54
41264;BME280;26998;48.714;9.414;2022-08-14T11:01:34;97929.94;;;29.88;25.82
41264;BME280;26998;48.714;9.414;2022-08-14T11:04:18;97928.50;;;30.07;26.03
41264;BME280;26998;48.714;9.414;2022-08-14T11:06:51;97918.53;;;30.02;25.52
41264;BME280;26998;48.714;9.414;2022-08-14T11:09:18;97908.59;;;29.85;26.05
41264;BME280;26998;48.714;9.414;2022-08-14T11:11:45;97908.59;;;30.26;25.55
41264;BME280;26998;48.714;9.414;2022-08-14T11:14:15;97914.69;;;30.19;26.53
41264;BME280;26998;48.714;9.414;2022-08-14T11:16:48;97916.16;;;30.57;26.11
41264;BME280;26998;48.714;9.414;2022-08-14T11:19:19;97917.84;;;30.61;26.24
41264;BME280;26998;48.714;9.414;2022-08-14T11:21:50;97916.88;;;30.54;25.93
41264;BME280;26998;48.714;9.414;2022-08-14T11:24:21;97910.00;;;30.48;25.85
41264;BME280;26998;48.714;9.414;2022-08-14T11:27:08;97907.53;;;30.58;25.33
41264;BME280;26998;48.714;9.414;2022-08-14T11:29:37;97902.47;;;30.76;25.62
41264;BME280;26998;48.714;9.414;2022-08-14T11:32:04;97925.97;;;30.14;24.14
41264;BME280;26998;48.714;9.414;2022-08-14T11:34:35;97924.16;;;30.62;23.94
41264;BME280;26998;48.714;9.414;2022-08-14T11:37:10;97918.84;;;30.25;24.81
41264;BME280;26998;48.714;9.414;2022-08-14T11:39:52;97913.59;;;30.64;24.46
41264;BME280;26998;48.714;9.414;2022-08-14T11:42:22;97918.47;;;30.71;24.01
41264;BME280;26998;48.714;9.414;2022-08-14T11:45:09;97916.41;;;30.96;24.87
41264;BME280;26998;48.714;9.414;2022-08-14T11:47:42;97918.75;;;30.66;24.10
41264;BME280;26998;48.714;9.414;2022-08-14T11:50:32;97909.75;;;30.97;23.02
41264;BME280;26998;48.714;9.414;2022-08-14T11:53:03;97908.47;;;30.78;23.46
41264;BME280;26998;48.714;9.414;2022-08-14T11:55:33;97911.13;;;30.47;22.56
41264;BME280;26998;48.714;9.414;2022-08-14T11:58:04;97910.44;;;30.50;23.18
41264;BME280;26998;48.714;9.414;2022-08-14T12:00:31;97904.91;;;30.78;23.28
41264;BME280;26998;48.714;9.414;2022-08-14T12:03:05;97892.13;;;30.57;23.32
41264;BME280;26998;48.714;9.414;2022-08-14T12:05:36;97887.72;;;30.69;23.08
41264;BME280;26998;48.714;9.414;2022-08-14T12:08:05;97879.91;;;30.87;22.91
41264;BME280;26998;48.714;9.414;2022-08-14T12:10:38;97871.28;;;30.88;23.76
41264;BME280;26998;48.714;9.414;2022-08-14T12:13:18;97867.34;;;30.73;23.17
41264;BME280;26998;48.714;9.414;2022-08-14T12:15:56;97867.53;;;31.12;23.35
41264;BME280;26998;48.714;9.414;2022-08-14T12:18:30;97862.97;;;31.36;22.69
41264;BME280;26998;48.714;9.414;2022-08-14T12:20:57;97848.84;;;31.05;23.56
41264;BME280;26998;48.714;9.414;2022-08-14T12:23:25;97861.19;;;31.43;22.64
41264;BME280;26998;48.714;9.414;2022-08-14T12:26:05;97859.88;;;31.37;22.76
41264;BME280;26998;48.714;9.414;2022-08-14T12:31:31;97851.69;;;31.09;23.03
41264;BME280;26998;48.714;9.414;2022-08-14T12:34:10;97854.25;;;31.18;22.81
41264;BME280;26998;48.714;9.414;2022-08-14T12:36:38;97841.72;;;31.04;23.01
41264;BME280;26998;48.714;9.414;2022-08-14T12:39:19;97850.66;;;31.33;23.26
41264;BME280;26998;48.714;9.414;2022-08-14T12:41:50;97841.50;;;31.45;22.61
41264;BME280;26998;48.714;9.414;2022-08-14T12:44:32;97837.97;;;31.83;21.86
41264;BME280;26998;48.714;9.414;2022-08-14T12:47:10;97826.53;;;32.01;21.38
41264;BME280;26998;48.714;9.414;2022-08-14T12:49:49;97829.34;;;31.49;22.23
41264;BME280;26998;48.714;9.414;2022-08-14T12:52:33;97818.19;;;31.62;22.66
41264;BME280;26998;48.714;9.414;2022-08-14T12:55:20;97823.34;;;31.63;22.32
41264;BME280;26998;48.714;9.414;2022-08-14T12:57:47;97817.91;;;31.67;22.19
41264;BME280;26998;48.714;9.414;2022-08-14T13:00:22;97809.91;;;31.62;22.46
41264;BME280;26998;48.714;9.414;2022-08-14T13:02:51;97812.44;;;31.70;22.01
41264;BME280;26998;48.714;9.414;2022-08-14T13:05:22;97808.63;;;31.40;22.08
41264;BME280;26998;48.714;9.414;2022-08-14T13:07:49;97791.34;;;31.43;21.73
41264;BME280;26998;48.714;9.414;2022-08-14T13:10:18;97804.09;;;31.47;22.43
41264;BME280;26998;48.714;9.414;2022-08-14T13:13:05;97794.66;;;31.33;21.86
41264;BME280;26998;48.714;9.414;2022-08-14T13:15:44;97787.38;;;31.24;22.62
41264;BME280;26998;48.714;9.414;2022-08-14T13:18:15;97787.59;;;31.51;22.08
41264;BME280;26998;48.714;9.414;2022-08-14T13:20:42;97771.97;;;31.59;21.77
41264;BME280;26998;48.714;9.414;2022-08-14T13:23:17;97775.97;;;31.61;21.49
41264;BME280;26998;48.714;9.414;2022-08-14T13:25:56;97773.34;;;31.88;21.00
41264;BME280;26998;48.714;9.414;2022-08-14T13:28:24;97767.47;;;31.50;21.85
41264;BME280;26998;48.714;9.414;2022-08-14T13:30:59;97774.78;;;31.43;21.80
41264;BME280;26998;48.714;9.414;2022-08-14T13:33:26;97777.28;;;31.48;21.77
41264;BME280;26998;48.714;9.414;2022-08-14T13:35:54;97766.53;;;31.82;21.68
41264;BME280;26998;48.714;9.414;2022-08-14T13:38:22;97763.81;;;31.85;21.04
41264;BME280;26998;48.714;9.414;2022-08-14T13:40:48;97759.53;;;31.49;21.21
41264;BME280;26998;48.714;9.414;2022-08-14T13:43:17;97762.38;;;31.72;21.24
41264;BME280;26998;48.714;9.414;2022-08-14T13:45:44;97759.00;;;31.43;21.15